A cold front will approach the TRACON from the northwest by this evening. Ahead of this front patchy FEW/SCT035-050 clouds will gradually become more dense in SCT/BKN020-040 clouds. Showers will begin to impact the TRACON after 18z, mainly north and west to start. Surface winds will be south to west at 4-9kts. Flight Hazards in the TRACON airspace: None expected.

Updated: 10/9/2015 11:48 AM
ATL Terminal Aerodrome Forecast:

FTUS80 KATL 092336
KATL 092334Z 1000/1106 28006KT P6SM FEW050 BKN100
     FM100200 26005KT P6SM VCSH BKN050
     FM100400 29005KT 6SM -SHRA BR SCT010 OVC035
      TEMPO 1004/1008 3SM -TSRA BR BKN010CB
     FM100800 31005KT 5SM -RA BR OVC008
     FM101400 32008KT P6SM VCSH BKN020
     FM102000 33012KT P6SM SCT025 BKN040
ATL TRACON Area Remark:
Convective Gate Forecast / Icing Gate Forecast / Vertical Wind Profile (click on image to enlarge)
Convective Gate Forecast
Icing Gate Forecast
table with gate forecasts (convective and CCFP) used April - November while icing gate forecasts are issued
AIRMETs & SIGMETS/ Southeast Radar loop / Satellite Image (click on image to enlarge)

Southeast Radar Loop


USA.gov is the U.S. government's official web portal to all federal, state and local government web resources and services.